createdAt,value
2022-12-06T00:00:39.156Z,98698.50
2022-12-06T00:10:47.276Z,98682.16
2022-12-06T00:20:54.458Z,98671.33
2022-12-06T00:30:59.816Z,98660.00
2022-12-06T00:41:06.607Z,98660.86
2022-12-06T00:51:14.855Z,98658.92
2022-12-06T01:01:24.016Z,98656.63
2022-12-06T01:11:32.345Z,98653.78
2022-12-06T01:21:39.443Z,98642.73
2022-12-06T01:31:46.455Z,98641.04
2022-12-06T01:41:53.459Z,98635.66
2022-12-06T01:52:00.997Z,98622.48
2022-12-06T02:02:08.866Z,98607.72
2022-12-06T02:12:17.712Z,98594.35
2022-12-06T02:22:29.898Z,98580.10
2022-12-06T02:32:36.704Z,98571.07
2022-12-06T02:42:47.829Z,98555.38
2022-12-06T02:52:59.967Z,98540.81
2022-12-06T03:03:13.773Z,98527.11
2022-12-06T03:13:26.490Z,98523.40
2022-12-06T03:23:34.232Z,98514.61
2022-12-06T03:33:46.344Z,98495.52
2022-12-06T03:43:53.976Z,98486.09
2022-12-06T03:54:04.749Z,98464.30
2022-12-06T04:04:12.469Z,98454.70
2022-12-06T04:14:19.626Z,98438.80
2022-12-06T04:24:25.756Z,98434.38
2022-12-06T04:34:50.605Z,98433.50
2022-12-06T04:44:57.920Z,98414.70
2022-12-06T04:55:06.177Z,98417.73
2022-12-06T05:05:12.303Z,98417.07
2022-12-06T05:15:19.410Z,98407.70
2022-12-06T05:25:26.559Z,98394.91
2022-12-06T05:35:33.870Z,98380.91
2022-12-06T05:45:40.800Z,98367.48
2022-12-06T05:55:48.049Z,98358.33
2022-12-06T06:16:03.988Z,98378.42
2022-12-06T06:26:09.170Z,98388.31
2022-12-06T06:36:16.237Z,98405.25
2022-12-06T06:46:26.375Z,98403.45
2022-12-06T06:56:33.649Z,98395.65
2022-12-06T07:06:40.695Z,98392.45
2022-12-06T07:16:47.850Z,98376.05
2022-12-06T07:26:54.974Z,98367.13
2022-12-06T07:37:02.390Z,98360.25
2022-12-06T07:47:09.531Z,98355.34
2022-12-06T07:57:16.779Z,98340.55
2022-12-06T08:07:23.636Z,98337.24
2022-12-06T08:17:31.217Z,98333.19
2022-12-06T08:27:38.577Z,98331.14
2022-12-06T08:37:46.255Z,98323.73
2022-12-06T08:47:53.189Z,98317.14
2022-12-06T08:58:02.948Z,98306.42
2022-12-06T09:08:10.397Z,98299.02
2022-12-06T09:18:20.573Z,98284.81
2022-12-06T09:28:30.898Z,98285.57
2022-12-06T09:38:41.707Z,98277.67
2022-12-06T09:49:29.223Z,98267.04
2022-12-06T09:59:40.523Z,98254.80
2022-12-06T10:09:46.227Z,98237.04
2022-12-06T10:19:54.277Z,98230.98
2022-12-06T10:30:06.473Z,98219.60
2022-12-06T10:40:18.725Z,98210.82
2022-12-06T10:50:23.588Z,98196.40
2022-12-06T11:00:36.032Z,98188.59
2022-12-06T11:10:45.063Z,98190.07
2022-12-06T11:20:53.758Z,98193.41
2022-12-06T11:31:06.429Z,98187.83
2022-12-06T11:41:11.843Z,98185.77
2022-12-06T11:51:27.481Z,98173.65
2022-12-06T12:01:42.062Z,98163.91
2022-12-06T12:11:58.694Z,98159.00
2022-12-06T12:22:21.189Z,98153.55
2022-12-06T12:32:28.810Z,98147.79
2022-12-06T12:42:40.213Z,98147.04
2022-12-06T12:52:48.062Z,98138.81
2022-12-06T13:03:00.003Z,98131.02
2022-12-06T13:13:06.593Z,98129.20
2022-12-06T13:23:15.614Z,98119.60
2022-12-06T13:33:25.806Z,98115.02
2022-12-06T13:43:58.822Z,98108.81
2022-12-06T13:54:37.151Z,98111.17
2022-12-06T14:04:45.093Z,98113.14
2022-12-06T14:14:56.334Z,98117.41
2022-12-06T14:25:01.422Z,98118.25
2022-12-06T14:35:07.625Z,98114.71
2022-12-06T14:45:14.359Z,98117.30
2022-12-06T14:55:21.206Z,98119.23
2022-12-06T15:05:33.662Z,98118.40
2022-12-06T15:15:39.799Z,98116.54
2022-12-06T15:25:47.177Z,98114.96
2022-12-06T15:35:55.864Z,98119.83
2022-12-06T15:46:05.276Z,98122.50
2022-12-06T15:56:12.920Z,98119.73
2022-12-06T16:06:22.127Z,98113.23
2022-12-06T16:16:30.370Z,98105.15
2022-12-06T16:26:41.036Z,98109.86
2022-12-06T16:36:59.298Z,98115.89
2022-12-06T16:47:10.530Z,98122.45
2022-12-06T16:57:19.832Z,98121.39
2022-12-06T17:07:27.782Z,98128.66
2022-12-06T17:17:35.607Z,98133.41
2022-12-06T17:27:43.147Z,98129.80
2022-12-06T17:37:52.706Z,98132.08
2022-12-06T17:48:00.302Z,98132.57
2022-12-06T17:58:09.571Z,98128.82
2022-12-06T18:08:16.766Z,98122.67
2022-12-06T18:18:24.259Z,98116.50
2022-12-06T18:28:31.550Z,98114.08
2022-12-06T18:38:39.953Z,98110.59
2022-12-06T18:48:49.700Z,98110.42
2022-12-06T18:58:58.553Z,98107.14
2022-12-06T19:09:05.286Z,98108.00
2022-12-06T19:19:16.855Z,98107.91
2022-12-06T19:29:32.548Z,98118.08
2022-12-06T19:39:40.383Z,98119.41
2022-12-06T19:49:46.380Z,98116.45
2022-12-06T19:59:56.776Z,98106.66
2022-12-06T20:10:06.027Z,98103.17
2022-12-06T20:20:10.392Z,98095.23
2022-12-06T20:30:18.184Z,98091.99
2022-12-06T20:40:31.083Z,98087.65
2022-12-06T20:50:39.581Z,98080.92
2022-12-06T21:00:45.064Z,98074.23
2022-12-06T21:11:20.997Z,98066.34
2022-12-06T21:21:32.632Z,98070.84
2022-12-06T21:31:41.064Z,98076.48
2022-12-06T21:41:48.711Z,98078.55
2022-12-06T21:52:02.241Z,98080.48
2022-12-06T22:02:13.680Z,98082.05
2022-12-06T22:12:20.957Z,98081.16
2022-12-06T22:22:28.153Z,98075.02
2022-12-06T22:32:35.832Z,98081.52
2022-12-06T22:42:43.295Z,98075.69
2022-12-06T22:52:50.742Z,98067.13
2022-12-06T23:02:56.665Z,98054.73
2022-12-06T23:13:03.983Z,98049.45
2022-12-06T23:23:11.192Z,98048.20
2022-12-06T23:33:22.692Z,98044.57
2022-12-06T23:43:30.557Z,98037.96
2022-12-06T23:53:39.689Z,98035.02
